T'aipeihsien, Taiwan
Current Conditions -  °F | °C
As of 11:30 PM on Tuesday 21 Oct 2014 (Local Time) from RCSS Reporting Station
Scattered Clouds Scattered Clouds  
Wind Chill: 79°   Ceiling: Unl
Heat Index: 81°   Visibility: 6mi
Dew Point: 66°   Wind: 2mph
Humidity: 65%   Direction: NA
Pressure: 29.94"   Gusts: NA
Location:  25.05°N, 121.5°E
Report Text: RCSS 211530Z VRB02KT 9999 FEW025 SCT100 26/19 Q1014 NOSIGRMK A2996
Loading
Personal Weather Stations






























Interactive Weather Map
Tropical Storm Tracking
New forecast layout! Learn more

10-Day Weather Forecast

Advertisements
Track Severe Weather on mobile